createdAt,value
2023-01-19T00:02:41.529Z,94211.09
2023-01-19T00:04:30.659Z,94196.45
2023-01-19T00:07:04.101Z,94204.48
2023-01-19T00:09:33.848Z,94210.47
2023-01-19T00:12:04.402Z,94190.64
2023-01-19T00:14:36.624Z,94201.77
2023-01-19T00:17:11.778Z,94211.84
2023-01-19T00:19:51.637Z,94221.33
2023-01-19T00:22:22.352Z,94202.05
2023-01-19T00:24:51.444Z,94221.97
2023-01-19T00:27:28.733Z,94228.75
2023-01-19T00:32:34.923Z,94221.90
2023-01-19T00:35:04.331Z,94219.10
2023-01-19T00:37:36.488Z,94227.24
2023-01-19T00:40:08.727Z,94228.50
2023-01-19T00:42:53.829Z,94224.71
2023-01-19T00:45:28.393Z,94226.71
2023-01-19T00:47:58.916Z,94227.62
2023-01-19T00:50:36.652Z,94229.30
2023-01-19T00:53:12.366Z,94216.75
2023-01-19T00:55:43.436Z,94219.02
2023-01-19T00:58:12.484Z,94234.74
2023-01-19T01:01:25.035Z,94217.13
2023-01-19T01:04:01.523Z,94223.83
2023-01-19T01:09:38.650Z,94206.19
2023-01-19T01:12:23.109Z,94202.17
2023-01-19T01:17:37.911Z,94206.38
2023-01-19T01:20:16.560Z,94183.33
2023-01-19T01:22:53.424Z,94183.08
2023-01-19T01:25:37.184Z,94185.87
2023-01-19T01:28:08.981Z,94163.88
2023-01-19T01:30:41.583Z,94205.59
2023-01-19T01:33:13.467Z,94210.75
2023-01-19T01:35:46.732Z,94189.09
2023-01-19T01:38:19.494Z,94210.51
2023-01-19T01:40:49.808Z,94212.66
2023-01-19T01:43:23.318Z,94216.98
2023-01-19T01:45:57.788Z,94207.13
2023-01-19T01:48:35.973Z,94210.31
2023-01-19T01:51:25.855Z,94192.72
2023-01-19T01:54:13.033Z,94201.77
2023-01-19T01:56:47.903Z,94194.23
2023-01-19T01:59:21.963Z,94194.78
2023-01-19T02:02:08.920Z,94192.41
2023-01-19T02:04:49.204Z,94215.20
2023-01-19T02:07:45.007Z,94217.18
2023-01-19T02:10:37.876Z,94207.77
2023-01-19T02:19:12.340Z,94186.38
2023-01-19T02:21:59.557Z,94176.94
2023-01-19T02:24:43.439Z,94181.42
2023-01-19T02:30:05.859Z,94179.67
2023-01-19T02:32:39.397Z,94158.59
2023-01-19T02:35:10.337Z,94172.03
2023-01-19T02:37:43.539Z,94181.22
2023-01-19T02:40:24.635Z,94169.35
2023-01-19T02:42:59.598Z,94157.73
2023-01-19T02:45:40.773Z,94172.50
2023-01-19T02:48:16.374Z,94168.29
2023-01-19T02:50:52.163Z,94173.86
2023-01-19T02:54:08.739Z,94196.96
2023-01-19T02:56:40.979Z,94168.20
2023-01-19T02:59:34.524Z,94176.50
2023-01-19T03:02:16.907Z,94167.61
2023-01-19T03:05:00.308Z,94183.70
2023-01-19T03:07:50.172Z,94181.55
2023-01-19T03:10:38.513Z,94176.22
2023-01-19T03:13:13.634Z,94170.15
2023-01-19T03:15:45.605Z,94170.49
2023-01-19T03:18:23.476Z,94184.28
2023-01-19T03:21:24.840Z,94168.85
2023-01-19T03:24:17.350Z,94165.86
2023-01-19T03:26:49.473Z,94160.56
2023-01-19T03:29:24.077Z,94154.36
2023-01-19T03:32:13.994Z,94148.47
2023-01-19T03:34:46.886Z,94160.98
2023-01-19T03:37:21.822Z,94177.36
2023-01-19T03:39:55.134Z,94130.78
2023-01-19T03:42:25.907Z,94162.64
2023-01-19T03:45:15.103Z,94151.80
2023-01-19T03:47:47.386Z,94154.58
2023-01-19T03:53:23.195Z,94147.66
2023-01-19T03:56:04.237Z,94157.45
2023-01-19T03:58:33.688Z,94139.47
2023-01-19T04:04:03.039Z,94136.56
2023-01-19T04:06:35.379Z,94130.23
2023-01-19T04:09:19.367Z,94133.42
2023-01-19T04:11:48.355Z,94151.96
2023-01-19T04:17:57.842Z,94142.66
2023-01-19T04:23:52.529Z,94128.16
2023-01-19T04:29:41.703Z,94122.84
2023-01-19T04:32:20.293Z,94112.79
2023-01-19T04:34:53.838Z,94127.47
2023-01-19T04:37:22.604Z,94112.06
2023-01-19T04:39:51.289Z,94112.16
2023-01-19T04:42:22.795Z,94112.34
2023-01-19T04:44:53.173Z,94120.40
2023-01-19T04:47:22.647Z,94128.28
2023-01-19T04:49:51.457Z,94109.02
2023-01-19T04:52:22.281Z,94128.79
2023-01-19T04:54:58.676Z,94139.96
2023-01-19T04:57:25.509Z,94139.87
2023-01-19T04:59:54.534Z,94144.63
2023-01-19T05:05:43.166Z,94147.28
2023-01-19T05:08:18.022Z,94176.20
2023-01-19T05:11:52.007Z,94173.86
2023-01-19T05:14:20.802Z,94196.70
2023-01-19T05:16:52.791Z,94190.31
2023-01-19T05:19:21.586Z,94180.23
2023-01-19T05:21:56.243Z,94199.11
2023-01-19T05:24:27.210Z,94224.60
2023-01-19T05:26:59.357Z,94210.64
2023-01-19T05:29:33.994Z,94211.56
2023-01-19T05:32:11.240Z,94198.80
2023-01-19T05:35:07.001Z,94138.56
2023-01-19T05:37:37.752Z,94187.54
2023-01-19T05:40:15.468Z,94145.05
2023-01-19T05:42:49.143Z,94177.95
2023-01-19T05:45:18.341Z,94185.97
2023-01-19T05:47:49.306Z,94160.16
2023-01-19T05:50:20.453Z,94172.69
2023-01-19T05:52:49.794Z,94194.53
2023-01-19T05:55:22.983Z,94175.37
2023-01-19T05:57:56.268Z,94176.98
2023-01-19T06:00:31.263Z,94186.77
2023-01-19T06:03:03.665Z,94174.84
2023-01-19T06:05:32.636Z,94194.31
2023-01-19T06:08:01.326Z,94180.00
2023-01-19T06:10:37.033Z,94192.39
2023-01-19T06:13:05.826Z,94192.87
2023-01-19T06:15:55.394Z,94167.23
2023-01-19T06:18:26.302Z,94155.85
2023-01-19T06:20:56.968Z,94186.80
2023-01-19T06:23:31.092Z,94198.13
2023-01-19T06:25:59.888Z,94183.02
2023-01-19T06:28:29.983Z,94179.40
2023-01-19T06:30:59.249Z,94185.24
2023-01-19T06:33:31.282Z,94187.59
2023-01-19T06:36:00.815Z,94170.16
2023-01-19T06:38:33.058Z,94212.67
2023-01-19T06:41:07.297Z,94204.12
2023-01-19T06:43:37.679Z,94180.72
2023-01-19T06:46:09.535Z,94193.55
2023-01-19T06:48:38.904Z,94198.10
2023-01-19T06:51:09.531Z,94226.20
2023-01-19T06:53:39.683Z,94238.80
2023-01-19T06:56:10.068Z,94232.08
2023-01-19T06:58:39.359Z,94232.41
2023-01-19T07:01:12.992Z,94236.02
2023-01-19T07:03:46.983Z,94238.89
2023-01-19T07:06:21.613Z,94231.23
2023-01-19T07:09:03.838Z,94246.52
2023-01-19T07:11:58.533Z,94243.15
2023-01-19T07:14:10.947Z,94243.67
2023-01-19T07:16:41.545Z,94236.45
2023-01-19T07:19:15.289Z,94232.50
2023-01-19T07:21:47.162Z,94235.59
2023-01-19T07:24:18.822Z,94250.70
2023-01-19T07:27:00.630Z,94221.13
2023-01-19T07:29:32.254Z,94235.09
2023-01-19T07:32:06.986Z,94259.42
2023-01-19T07:34:37.261Z,94255.39
2023-01-19T07:37:07.517Z,94250.00
2023-01-19T07:39:38.877Z,94239.12
2023-01-19T07:42:09.262Z,94235.25
2023-01-19T07:44:40.454Z,94240.78
2023-01-19T07:47:12.280Z,94227.34
2023-01-19T07:49:45.319Z,94236.05
2023-01-19T07:52:16.144Z,94239.92
2023-01-19T07:54:49.444Z,94225.97
2023-01-19T07:57:17.825Z,94229.98
2023-01-19T07:59:48.369Z,94236.46
2023-01-19T08:02:19.708Z,94250.12
2023-01-19T08:04:52.354Z,94231.53
2023-01-19T08:07:27.087Z,94246.64
2023-01-19T08:09:57.345Z,94245.14
2023-01-19T08:12:32.635Z,94240.67
2023-01-19T08:15:06.145Z,94228.02
2023-01-19T08:17:36.268Z,94240.63
2023-01-19T08:20:10.530Z,94234.58
2023-01-19T08:22:46.691Z,94231.93
2023-01-19T08:25:22.040Z,94237.06
2023-01-19T08:27:53.311Z,94232.68
2023-01-19T08:30:26.631Z,94255.03
2023-01-19T08:32:58.919Z,94251.98
2023-01-19T08:35:28.186Z,94252.25
2023-01-19T08:38:01.759Z,94233.46
2023-01-19T08:40:49.551Z,94250.50
2023-01-19T08:43:22.050Z,94258.58
2023-01-19T08:49:00.387Z,94262.18
2023-01-19T08:51:34.120Z,94262.36
2023-01-19T08:54:02.966Z,94276.41
2023-01-19T08:56:31.940Z,94263.75
2023-01-19T08:59:14.044Z,94205.69
2023-01-19T09:02:17.942Z,94262.09
2023-01-19T09:17:01.545Z,94258.69
2023-01-19T09:19:30.228Z,94276.34
2023-01-19T09:25:23.345Z,94274.09
2023-01-19T09:27:52.630Z,94284.34
2023-01-19T09:30:23.395Z,94260.88
2023-01-19T09:33:03.804Z,94270.91
2023-01-19T09:35:37.441Z,94289.45
2023-01-19T09:38:15.416Z,94264.67
2023-01-19T09:41:07.412Z,94264.98
2023-01-19T09:44:05.775Z,94263.27
2023-01-19T09:46:34.024Z,94273.35
2023-01-19T09:49:08.900Z,94279.15
2023-01-19T09:51:40.450Z,94256.91
2023-01-19T09:54:27.182Z,94243.88
2023-01-19T09:57:02.178Z,94225.03
2023-01-19T09:59:32.766Z,94234.60
2023-01-19T10:02:14.640Z,94242.55
2023-01-19T10:04:48.702Z,94229.08
2023-01-19T10:07:26.429Z,94233.48
2023-01-19T10:10:21.236Z,94245.97
2023-01-19T10:12:52.945Z,94244.77
2023-01-19T10:15:57.663Z,94250.03
2023-01-19T10:18:51.939Z,94250.23
2023-01-19T10:21:36.230Z,94272.41
2023-01-19T10:24:46.831Z,94241.21
2023-01-19T10:27:19.832Z,94236.35
2023-01-19T10:29:49.185Z,94225.91
2023-01-19T10:32:21.357Z,94225.47
2023-01-19T10:35:00.901Z,94242.46
2023-01-19T10:41:08.650Z,94242.38
2023-01-19T10:43:43.862Z,94242.47
2023-01-19T10:46:20.001Z,94250.02
2023-01-19T10:48:57.708Z,94243.94
2023-01-19T10:51:26.687Z,94236.08
2023-01-19T10:54:07.726Z,94242.22
2023-01-19T10:56:50.802Z,94230.47
2023-01-19T10:59:40.518Z,94234.02
2023-01-19T11:02:27.935Z,94217.10
2023-01-19T11:05:02.663Z,94228.09
2023-01-19T11:07:33.674Z,94268.64
2023-01-19T11:10:24.216Z,94244.74
2023-01-19T11:13:09.315Z,94241.85
2023-01-19T11:15:43.545Z,94240.86
2023-01-19T11:18:33.065Z,94235.48
2023-01-19T11:21:06.106Z,94210.46
2023-01-19T11:23:44.011Z,94204.38
2023-01-19T11:26:18.861Z,94196.44
2023-01-19T11:28:53.297Z,94202.60
2023-01-19T11:31:36.821Z,94204.07
2023-01-19T11:34:29.810Z,94197.12
2023-01-19T11:37:01.998Z,94207.97
2023-01-19T11:39:33.231Z,94202.97
2023-01-19T11:42:06.351Z,94203.41
2023-01-19T11:44:42.063Z,94206.11
2023-01-19T11:47:22.361Z,94207.30
2023-01-19T11:50:18.601Z,94227.93
2023-01-19T11:53:00.583Z,94201.41
2023-01-19T11:56:03.480Z,94207.92
2023-01-19T11:58:34.974Z,94212.09
2023-01-19T12:01:15.819Z,94212.09
2023-01-19T12:03:59.846Z,94180.65
2023-01-19T12:06:36.017Z,94173.11
2023-01-19T12:09:10.654Z,94190.23
2023-01-19T12:11:42.394Z,94160.17
2023-01-19T12:14:22.931Z,94187.70
2023-01-19T12:16:54.458Z,94181.40
2023-01-19T12:19:26.202Z,94183.94
2023-01-19T12:21:56.633Z,94183.88
2023-01-19T12:24:34.038Z,94181.88
2023-01-19T12:42:30.606Z,94176.19
2023-01-19T12:55:09.310Z,94208.52
2023-01-19T12:56:46.038Z,94200.47
2023-01-19T12:57:41.166Z,94207.67
2023-01-19T13:03:30.730Z,94206.23
2023-01-19T13:06:06.590Z,94188.77
2023-01-19T13:08:58.170Z,94210.88
2023-01-19T13:34:48.933Z,94173.55
2023-01-19T14:24:16.238Z,94155.06
2023-01-19T14:26:49.271Z,94173.78
2023-01-19T14:29:24.282Z,94172.13
2023-01-19T14:32:07.735Z,94180.04
2023-01-19T14:34:46.680Z,94181.90
2023-01-19T14:37:45.429Z,94170.37
2023-01-19T14:40:44.562Z,94191.38
2023-01-19T14:46:13.174Z,94178.50
2023-01-19T14:48:50.325Z,94190.23
2023-01-19T14:51:22.077Z,94180.83
2023-01-19T14:53:54.146Z,94200.81
2023-01-19T14:56:34.026Z,94210.55
2023-01-19T14:59:09.969Z,94205.19
2023-01-19T15:01:38.919Z,94212.59
2023-01-19T15:04:09.309Z,94214.94
2023-01-19T15:06:41.180Z,94211.42
2023-01-19T15:09:14.503Z,94199.81
2023-01-19T15:11:45.232Z,94206.48
2023-01-19T15:14:16.448Z,94190.43
2023-01-19T15:16:45.461Z,94202.53
2023-01-19T15:19:17.652Z,94204.05
2023-01-19T15:24:46.571Z,94225.03
2023-01-19T15:27:15.967Z,94235.61
2023-01-19T15:29:57.335Z,94247.17
2023-01-19T15:32:44.483Z,94253.14
2023-01-19T15:35:26.149Z,94245.08
2023-01-19T15:37:52.570Z,94246.10
2023-01-19T15:40:23.277Z,94245.41
2023-01-19T15:43:01.445Z,94245.84
2023-01-19T15:45:41.585Z,94250.25
2023-01-19T15:48:15.676Z,94257.36
2023-01-19T15:50:47.847Z,94267.42
2023-01-19T15:53:19.659Z,94265.75
2023-01-19T15:55:52.703Z,94282.00
2023-01-19T15:58:21.616Z,94281.64
2023-01-19T16:01:01.481Z,94297.51
2023-01-19T16:03:33.350Z,94289.05
2023-01-19T16:06:17.991Z,94307.92
2023-01-19T16:08:59.010Z,94261.84
2023-01-19T16:11:38.135Z,94318.29
2023-01-19T16:17:21.666Z,94329.41
2023-01-19T16:23:34.643Z,94363.99
2023-01-19T16:30:18.234Z,94395.73
2023-01-19T16:32:49.183Z,94420.44
2023-01-19T16:35:30.076Z,94431.63
2023-01-19T16:38:09.691Z,94429.44
2023-01-19T16:40:40.806Z,94417.08
2023-01-19T16:43:14.596Z,94416.05
2023-01-19T16:46:05.187Z,94421.34
2023-01-19T16:48:35.945Z,94419.22
2023-01-19T16:51:13.784Z,94432.90
2023-01-19T16:53:42.961Z,94432.98
2023-01-19T16:56:22.577Z,94424.55
2023-01-19T16:59:31.796Z,94416.34
2023-01-19T17:41:12.461Z,94406.08
2023-01-19T17:43:53.216Z,94408.69
2023-01-19T17:49:19.964Z,94401.73
2023-01-19T17:51:57.509Z,94409.15
2023-01-19T17:54:26.402Z,94404.91
2023-01-19T17:56:56.369Z,94399.62
2023-01-19T17:59:25.219Z,94409.33
2023-01-19T18:01:54.595Z,94412.73
2023-01-19T18:04:23.196Z,94425.28
2023-01-19T18:06:51.910Z,94425.86
2023-01-19T18:09:20.788Z,94413.90
2023-01-19T18:11:49.332Z,94424.17
2023-01-19T18:14:18.141Z,94414.55
2023-01-19T18:16:46.776Z,94401.89
2023-01-19T18:19:15.518Z,94422.03
2023-01-19T18:21:44.302Z,94426.89
2023-01-19T18:24:13.080Z,94419.11
2023-01-19T18:26:42.661Z,94426.58
2023-01-19T18:29:11.394Z,94422.83
2023-01-19T18:31:40.169Z,94427.27
2023-01-19T18:34:09.010Z,94430.36
2023-01-19T18:36:37.834Z,94446.63
2023-01-19T18:39:06.528Z,94443.27
2023-01-19T18:41:37.074Z,94444.78
2023-01-19T18:47:25.862Z,94441.93
2023-01-19T18:50:07.147Z,94437.96
2023-01-19T18:52:36.238Z,94435.85
2023-01-19T18:55:11.084Z,94425.58
2023-01-19T18:57:49.213Z,94427.28
2023-01-19T19:00:19.064Z,94421.02
2023-01-19T19:02:47.847Z,94426.91
2023-01-19T19:05:16.998Z,94432.42
2023-01-19T19:10:42.791Z,94436.61
2023-01-19T19:13:16.528Z,94440.03
2023-01-19T19:15:52.224Z,94438.48
2023-01-19T19:18:21.554Z,94404.25
2023-01-19T19:20:53.527Z,94432.80
2023-01-19T19:23:22.182Z,94440.61
2023-01-19T19:25:50.834Z,94444.61
2023-01-19T19:28:23.003Z,94452.77
2023-01-19T19:30:53.473Z,94453.73
2023-01-19T19:33:22.342Z,94450.86
2023-01-19T19:35:54.041Z,94461.30
2023-01-19T19:38:23.034Z,94489.25
2023-01-19T19:40:53.526Z,94482.98
2023-01-19T19:43:23.086Z,94495.17
2023-01-19T19:46:03.557Z,94509.38
2023-01-19T19:48:39.052Z,94507.21
2023-01-19T19:51:17.503Z,94496.03
2023-01-19T19:53:52.480Z,94495.05
2023-01-19T19:56:37.789Z,94482.41
2023-01-19T19:59:12.742Z,94470.62
2023-01-19T20:01:43.936Z,94466.08
2023-01-19T20:04:24.589Z,94461.72
2023-01-19T20:09:55.395Z,94424.07
2023-01-19T20:12:30.680Z,94414.17
2023-01-19T20:14:59.296Z,94408.86
2023-01-19T20:17:29.517Z,94414.17
2023-01-19T20:19:59.238Z,94431.12
2023-01-19T20:22:33.925Z,94436.05
2023-01-19T20:25:02.623Z,94441.20
2023-01-19T20:27:40.984Z,94439.45
2023-01-19T20:30:16.780Z,94458.19
2023-01-19T20:32:56.542Z,94472.91
2023-01-19T20:35:18.908Z,94463.44
2023-01-19T20:37:48.548Z,94438.81
2023-01-19T20:40:21.751Z,94431.98
2023-01-19T20:42:50.280Z,94428.59
2023-01-19T20:45:26.208Z,94420.06
2023-01-19T20:47:54.773Z,94419.88
2023-01-19T20:50:23.519Z,94423.11
2023-01-19T20:52:59.888Z,94433.01
2023-01-19T20:55:46.093Z,94431.69
2023-01-19T20:58:17.943Z,94419.89
2023-01-19T21:00:48.539Z,94414.57
2023-01-19T21:03:17.731Z,94405.63
2023-01-19T21:05:51.538Z,94394.02
2023-01-19T21:08:20.293Z,94407.71
2023-01-19T21:10:53.795Z,94405.06
2023-01-19T21:13:22.511Z,94397.64
2023-01-19T21:15:51.259Z,94384.30
2023-01-19T21:18:20.045Z,94383.19
2023-01-19T21:20:51.824Z,94372.90
2023-01-19T21:23:20.696Z,94363.75
2023-01-19T21:25:58.554Z,94365.63
2023-01-19T21:28:30.293Z,94366.39
2023-01-19T21:31:00.457Z,94365.20
2023-01-19T21:33:29.094Z,94392.11
2023-01-19T21:35:59.963Z,94417.11
2023-01-19T21:38:30.382Z,94420.34
2023-01-19T21:40:59.948Z,94416.18
2023-01-19T21:43:28.749Z,94408.05
2023-01-19T21:45:57.470Z,94401.00
2023-01-19T21:48:26.182Z,94389.97
2023-01-19T21:51:03.691Z,94375.72
2023-01-19T21:53:34.678Z,94370.39
2023-01-19T21:56:03.327Z,94365.06
2023-01-19T21:58:32.111Z,94350.06
2023-01-19T22:01:07.710Z,94340.95
2023-01-19T22:03:36.526Z,94350.25
2023-01-19T22:06:08.159Z,94348.55
2023-01-19T22:08:37.718Z,94350.07
2023-01-19T22:11:11.735Z,94352.94
2023-01-19T22:13:43.661Z,94348.17
2023-01-19T22:16:15.099Z,94337.36
2023-01-19T22:21:36.751Z,94372.68
2023-01-19T22:24:16.204Z,94387.47
2023-01-19T22:26:53.109Z,94382.19
2023-01-19T22:32:23.500Z,94346.08
2023-01-19T22:34:51.281Z,94330.12
2023-01-19T22:37:22.213Z,94299.72
2023-01-19T22:39:57.446Z,94322.14
2023-01-19T22:42:32.638Z,94320.83
2023-01-19T22:45:03.698Z,94328.59
2023-01-19T22:47:35.178Z,94315.51
2023-01-19T22:50:04.061Z,94313.38
2023-01-19T22:52:49.062Z,94313.59
2023-01-19T22:55:22.826Z,94314.32
2023-01-19T22:58:11.950Z,94313.92
2023-01-19T23:00:44.602Z,94320.08
2023-01-19T23:03:35.723Z,94320.30
2023-01-19T23:06:16.867Z,94317.47
2023-01-19T23:15:42.091Z,94338.92
2023-01-19T23:18:29.888Z,94348.88
2023-01-19T23:21:09.022Z,94343.18
2023-01-19T23:23:41.030Z,94330.11
2023-01-19T23:26:20.331Z,94340.33
2023-01-19T23:28:51.104Z,94347.39
2023-01-19T23:31:25.505Z,94362.00
2023-01-19T23:33:59.867Z,94387.25
2023-01-19T23:36:32.627Z,94416.17
2023-01-19T23:39:19.491Z,94444.66
2023-01-19T23:41:49.229Z,94462.17
2023-01-19T23:44:19.738Z,94465.78
2023-01-19T23:46:49.701Z,94452.25
2023-01-19T23:49:20.037Z,94443.96
2023-01-19T23:51:52.332Z,94432.29
2023-01-19T23:54:37.147Z,94425.52
2023-01-19T23:57:09.099Z,94424.01
2023-01-19T23:59:38.303Z,94411.50
